Time;durP1;ratioP1;P1;durP2;ratioP2;P2;SDS_P1;SDS_P2;PMS_P1;PMS_P2;Temp;Humidity;BMP_temperature;BMP_pressure;BME280_temperature;BME280_humidity;BME280_pressure;Samples;Min_cycle;Max_cycle;Signal;HPM_P1;HPM_P2
2023/01/30 00:02:16;;;;;;;19.93;12.07;;;1.40;99.90;;;1.19;81.80;99968.91;5041595;28;20206;-68
2023/01/30 00:04:45;;;;;;;19.67;13.63;;;1.40;99.90;;;1.19;81.76;99963.84;5051578;28;20621;-70
2023/01/30 00:07:13;;;;;;;18.20;12.07;;;1.50;99.90;;;1.20;82.17;99970.63;5057168;28;20283;-66
2023/01/30 00:09:42;;;;;;;18.73;12.33;;;1.40;99.90;;;1.20;81.70;99940.16;5051178;28;20210;-66
2023/01/30 00:12:10;;;;;;;19.40;12.37;;;1.40;99.90;;;1.21;81.52;99946.94;5043141;28;20327;-64
2023/01/30 00:14:39;;;;;;;19.00;11.33;;;1.50;99.90;;;1.20;81.37;99951.16;5051464;28;20670;-66
2023/01/30 00:17:09;;;;;;;17.90;12.13;;;1.50;99.90;;;1.23;81.23;99942.78;5059809;28;20206;-65
2023/01/30 00:19:39;;;;;;;16.63;11.27;;;1.40;99.90;;;1.23;81.19;99927.56;5050058;28;20209;-64
2023/01/30 00:22:08;;;;;;;18.10;12.47;;;1.50;99.90;;;1.24;81.57;99926.72;5038472;28;20205;-64
2023/01/30 00:24:36;;;;;;;15.97;11.27;;;1.50;99.90;;;1.25;81.30;99913.22;5050687;28;20237;-66
2023/01/30 00:27:05;;;;;;;17.13;11.33;;;1.50;99.90;;;1.26;81.91;99919.16;5060771;28;20221;-65
2023/01/30 00:29:36;;;;;;;17.17;11.77;;;1.50;99.90;;;1.26;81.81;99909.88;5072712;28;20290;-64
2023/01/30 00:32:05;;;;;;;17.43;11.20;;;1.50;99.90;;;1.27;80.89;99909.03;5078939;28;20212;-65
2023/01/30 00:34:33;;;;;;;19.70;11.67;;;1.50;99.90;;;1.25;81.28;99890.38;5072217;28;20252;-66
2023/01/30 00:37:03;;;;;;;18.57;12.00;;;1.50;99.90;;;1.25;81.87;99894.59;5073637;28;20282;-66
2023/01/30 00:39:35;;;;;;;18.70;12.47;;;1.50;99.90;;;1.23;81.45;99881.03;5074392;28;20568;-65
2023/01/30 00:47:36;;;;;;;17.57;11.17;;;1.40;99.90;;;1.16;82.23;99863.09;5075131;28;20320;-67
2023/01/30 00:50:06;;;;;;;18.67;12.67;;;1.50;99.90;;;1.17;81.56;99866.50;5077720;28;20205;-66
2023/01/30 00:52:36;;;;;;;16.47;11.60;;;1.40;99.90;;;1.18;82.72;99865.69;5066798;28;20204;-67
2023/01/30 00:55:05;;;;;;;16.77;11.57;;;1.40;99.90;;;1.20;82.31;99857.28;5071237;28;20278;-67
2023/01/30 00:57:33;;;;;;;14.50;10.67;;;1.50;99.90;;;1.18;82.09;99833.56;5079631;28;20582;-67
2023/01/30 01:00:04;;;;;;;17.00;11.30;;;1.50;99.90;;;1.19;82.12;99826.81;5084155;28;20724;-69
2023/01/30 01:02:32;;;;;;;21.07;12.43;;;1.40;99.90;;;1.20;82.25;99831.06;5073093;28;20298;-68
2023/01/30 01:05:01;;;;;;;16.03;11.47;;;1.40;99.90;;;1.20;82.34;99824.28;5056589;28;20241;-65
2023/01/30 01:07:29;;;;;;;14.60;10.87;;;1.50;99.90;;;1.20;82.22;99829.38;5067279;28;20237;-64
2023/01/30 01:09:59;;;;;;;14.47;10.87;;;1.50;99.90;;;1.19;82.27;99801.44;5069559;28;20240;-66
2023/01/30 01:12:27;;;;;;;15.80;10.60;;;1.40;99.90;;;1.19;82.16;99793.81;5074108;28;20201;-67
2023/01/30 01:14:56;;;;;;;16.30;11.50;;;1.50;99.90;;;1.19;82.19;99792.13;5074526;28;20214;-65
2023/01/30 01:17:24;;;;;;;15.77;11.17;;;1.50;99.90;;;1.23;82.36;99797.28;5070811;28;20208;-67
2023/01/30 01:19:53;;;;;;;14.10;10.23;;;1.40;99.90;;;1.23;81.43;99776.97;5074885;28;20781;-65
2023/01/30 01:22:21;;;;;;;15.20;10.17;;;1.50;99.90;;;1.24;82.28;99764.31;5071870;28;20231;-67
2023/01/30 01:24:50;;;;;;;15.23;11.20;;;1.50;99.90;;;1.26;81.95;99756.75;5070380;28;20249;-67
2023/01/30 01:27:19;;;;;;;14.37;10.20;;;1.50;99.90;;;1.27;81.19;99754.22;5071746;28;20201;-66
2023/01/30 01:29:48;;;;;;;14.50;9.83;;;1.50;99.90;;;1.30;81.92;99743.28;5072561;28;20645;-66
2023/01/30 01:32:16;;;;;;;14.40;9.47;;;1.60;99.90;;;1.30;81.56;99739.06;5065056;28;20206;-66
2023/01/30 01:34:45;;;;;;;13.17;10.03;;;1.50;99.90;;;1.33;81.52;99736.59;5069254;28;20278;-67
2023/01/30 01:37:13;;;;;;;13.80;10.20;;;1.60;99.90;;;1.36;81.52;99730.72;5070941;28;20600;-66
2023/01/30 01:42:33;;;;;;;11.63;8.17;;;1.60;99.90;;;1.36;80.88;99723.09;5073115;28;20274;-66
2023/01/30 01:45:13;;;;;;;13.60;8.20;;;1.60;99.90;;;1.37;81.02;99723.16;5073521;28;20198;-67
2023/01/30 01:47:48;;;;;;;11.60;8.43;;;1.60;99.90;;;1.37;80.39;99710.44;5077840;28;20197;-66
2023/01/30 01:50:22;;;;;;;12.03;8.60;;;1.60;99.90;;;1.37;80.76;99713.00;5066478;28;20290;-67
2023/01/30 01:52:55;;;;;;;12.53;8.67;;;1.60;99.90;;;1.36;79.96;99696.06;5067616;28;20205;-68
2023/01/30 01:55:25;;;;;;;11.33;8.30;;;1.60;99.90;;;1.39;80.88;99683.41;5064738;28;20738;-66
2023/01/30 01:57:59;;;;;;;10.23;8.17;;;1.60;99.90;;;1.38;80.80;99689.31;5073372;28;20243;-66
2023/01/30 02:00:28;;;;;;;11.27;8.33;;;1.60;99.90;;;1.38;80.17;99684.22;5070742;28;20632;-66
2023/01/30 02:03:00;;;;;;;12.00;7.97;;;1.60;99.90;;;1.37;79.82;99680.00;5080564;28;20200;-67
2023/01/30 02:05:35;;;;;;;10.07;7.57;;;1.60;99.90;;;1.36;80.36;99670.66;5071937;28;20580;-67
2023/01/30 02:08:09;;;;;;;11.37;7.83;;;1.60;99.90;;;1.36;79.77;99677.41;5069153;28;20579;-64
2023/01/30 02:10:45;;;;;;;9.57;7.33;;;1.60;99.90;;;1.37;80.64;99664.75;5070897;28;20606;-67
2023/01/30 02:13:15;;;;;;;10.80;8.37;;;1.60;99.90;;;1.39;79.97;99677.47;5077277;28;20196;-66
2023/01/30 02:15:44;;;;;;;9.30;6.93;;;1.60;99.90;;;1.38;79.63;99665.63;5074107;28;20206;-66
2023/01/30 02:18:13;;;;;;;9.60;7.20;;;1.60;99.90;;;1.39;79.43;99664.78;5064426;28;20210;-65
2023/01/30 02:21:27;;;;;;;10.50;7.97;;;1.60;99.90;;;1.36;79.70;99642.75;5068226;28;20216;-66
2023/01/30 02:24:53;;;;;;;11.63;7.87;;;1.60;99.90;;;1.33;79.72;99636.75;5067348;28;20268;-67
2023/01/30 02:27:41;;;;;;;11.00;6.87;;;1.60;99.90;;;1.35;79.55;99630.88;5062129;28;20294;-64
2023/01/30 02:30:58;;;;;;;12.90;7.70;;;1.60;99.90;;;1.36;78.89;99636.78;5073217;28;20229;-65
2023/01/30 02:33:40;;;;;;;11.87;8.03;;;1.60;99.90;;;1.34;79.09;99631.69;5077633;28;20205;-67
2023/01/30 02:36:19;;;;;;;12.00;8.60;;;1.60;99.90;;;1.35;79.28;99641.03;5051285;28;20347;-68
2023/01/30 02:38:57;;;;;;;11.47;8.80;;;1.60;99.90;;;1.35;79.33;99630.00;5059329;28;20209;-66
2023/01/30 02:41:36;;;;;;;11.73;8.33;;;1.60;99.90;;;1.38;79.08;99630.06;5064394;28;20233;-66
2023/01/30 02:44:11;;;;;;;12.83;8.93;;;1.60;99.90;;;1.35;79.28;99610.56;5072773;28;20205;-66
2023/01/30 02:46:53;;;;;;;15.27;9.23;;;1.60;99.90;;;1.33;78.73;99624.06;5076474;28;20668;-66
2023/01/30 02:49:29;;;;;;;13.10;8.77;;;1.60;99.90;;;1.33;78.75;99611.38;5068287;28;20201;-67
2023/01/30 02:52:00;;;;;;;11.03;8.10;;;1.60;99.90;;;1.32;77.94;99600.34;5066826;28;20271;-67
2023/01/30 02:54:28;;;;;;;10.33;7.90;;;1.50;99.90;;;1.29;77.85;99590.16;5076881;28;20205;-65
2023/01/30 02:56:59;;;;;;;12.00;8.63;;;1.50;99.90;;;1.26;77.67;99590.09;5071634;28;20283;-67
2023/01/30 02:59:33;;;;;;;10.00;7.17;;;1.50;99.90;;;1.23;77.08;99587.50;5068787;28;20189;-68
2023/01/30 03:02:45;;;;;;;14.67;8.40;;;1.50;99.90;;;1.22;77.21;99577.34;5076902;28;20213;-65
2023/01/30 03:05:58;;;;;;;11.27;8.07;;;1.50;99.90;;;1.20;76.96;99569.69;5052115;28;20652;-68
2023/01/30 03:08:37;;;;;;;12.53;7.70;;;1.40;99.90;;;1.19;77.57;99565.44;5070601;28;20695;-64
2023/01/30 03:11:09;;;;;;;11.43;7.70;;;1.40;99.90;;;1.20;76.65;99569.69;5066036;28;20246;-66
2023/01/30 03:13:49;;;;;;;11.60;8.43;;;1.40;99.90;;;1.18;76.55;99563.75;5069551;28;20197;-68
2023/01/30 03:16:22;;;;;;;13.53;8.97;;;1.40;99.90;;;1.17;77.52;99556.94;5059707;28;20198;-64
2023/01/30 03:18:52;;;;;;;12.97;8.07;;;1.40;99.90;;;1.15;77.25;99541.69;5068975;28;20228;-66
2023/01/30 03:21:21;;;;;;;11.57;8.07;;;1.40;99.90;;;1.14;77.09;99540.00;5068826;28;20337;-67
2023/01/30 03:23:49;;;;;;;12.57;8.33;;;1.40;99.90;;;1.11;77.04;99534.84;5069730;28;20233;-67
2023/01/30 03:26:22;;;;;;;12.00;8.00;;;1.40;99.90;;;1.11;77.00;99513.72;5071485;28;20268;-68
2023/01/30 03:28:52;;;;;;;12.67;8.30;;;1.30;99.90;;;1.09;77.04;99513.66;5071485;28;20246;-66
2023/01/30 03:31:21;;;;;;;11.53;7.60;;;1.40;99.90;;;1.11;77.51;99498.50;5067640;28;20209;-66
2023/01/30 03:33:49;;;;;;;12.23;8.00;;;1.40;99.90;;;1.09;77.68;99495.06;5067113;28;20213;-67
2023/01/30 03:36:19;;;;;;;11.83;8.10;;;1.30;99.90;;;1.05;77.59;99486.53;5071321;28;20198;-65
2023/01/30 03:38:48;;;;;;;15.77;9.20;;;1.30;99.90;;;1.05;77.65;99485.69;5077898;28;20334;-67
2023/01/30 03:41:16;;;;;;;13.30;8.70;;;1.30;99.90;;;1.04;78.00;99471.31;5074631;28;20312;-65
2023/01/30 03:43:44;;;;;;;12.20;9.00;;;1.30;99.90;;;1.01;78.58;99479.69;5068106;28;20225;-66
2023/01/30 03:46:13;;;;;;;11.60;7.93;;;1.30;99.90;;;0.98;78.49;99466.97;5069019;28;20574;-65
2023/01/30 03:48:41;;;;;;;14.13;9.00;;;1.30;99.90;;;0.96;79.07;99461.88;5072825;28;20288;-66
2023/01/30 03:51:10;;;;;;;10.80;8.30;;;1.20;99.90;;;0.95;79.40;99462.69;5076161;28;20258;-68
2023/01/30 03:53:39;;;;;;;14.70;9.20;;;1.20;99.90;;;0.95;79.59;99464.38;5070240;28;20251;-66
2023/01/30 03:56:08;;;;;;;13.60;8.90;;;1.20;99.90;;;0.94;80.08;99455.91;5073351;28;20206;-67
2023/01/30 03:58:36;;;;;;;12.77;8.53;;;1.20;99.90;;;0.92;80.06;99446.56;5078598;28;20263;-66
2023/01/30 04:01:05;;;;;;;11.53;8.83;;;1.10;99.90;;;0.91;79.66;99443.16;5065755;28;20259;-67
2023/01/30 04:03:34;;;;;;;13.50;8.97;;;1.20;99.90;;;0.91;80.49;99440.63;5063617;28;20601;-66
2023/01/30 04:06:02;;;;;;;13.83;9.33;;;1.20;99.90;;;0.90;80.21;99428.78;5051456;28;20267;-65
2023/01/30 04:08:31;;;;;;;12.70;8.80;;;1.10;99.90;;;0.89;79.69;99427.09;5065158;28;20814;-66
2023/01/30 04:11:00;;;;;;;15.07;9.47;;;1.10;99.90;;;0.89;79.84;99419.47;5073536;28;20261;-66
2023/01/30 04:13:29;;;;;;;12.10;8.37;;;1.10;99.90;;;0.86;80.15;99416.88;5079050;28;20205;-66
2023/01/30 04:16:17;;;;;;;15.00;9.50;;;1.10;99.90;;;0.86;80.12;99416.88;5073764;28;20648;-67
2023/01/30 04:18:45;;;;;;;13.10;8.70;;;1.10;99.90;;;0.87;79.88;99413.50;5055302;28;20209;-68
2023/01/30 04:21:14;;;;;;;13.97;9.13;;;1.10;99.90;;;0.85;79.48;99396.59;5071084;28;20233;-67
2023/01/30 04:23:43;;;;;;;12.97;9.50;;;1.10;99.90;;;0.83;79.59;99394.00;5077174;28;20215;-67
2023/01/30 04:26:13;;;;;;;13.17;9.03;;;1.10;99.90;;;0.83;79.63;99386.41;5071436;28;20232;-66
2023/01/30 04:28:43;;;;;;;14.03;9.43;;;1.00;99.90;;;0.81;79.28;99375.38;5065549;28;20618;-65
2023/01/30 04:31:12;;;;;;;17.27;9.50;;;1.00;99.90;;;0.77;79.05;99375.28;5050787;28;20201;-67
2023/01/30 04:33:41;;;;;;;13.30;8.40;;;1.00;99.90;;;0.73;79.60;99364.25;5060027;28;20574;-65
2023/01/30 04:36:11;;;;;;;16.17;9.50;;;1.00;99.90;;;0.74;79.58;99365.97;5068796;28;20201;-67
2023/01/30 04:38:39;;;;;;;12.50;8.07;;;1.00;99.90;;;0.75;79.39;99362.59;5074652;28;20259;-66
2023/01/30 04:41:08;;;;;;;11.60;8.10;;;0.90;99.90;;;0.73;79.47;99354.94;5065328;28;20209;-66
2023/01/30 04:43:38;;;;;;;13.03;8.27;;;0.90;99.90;;;0.72;79.01;99332.13;5075297;28;20573;-65
2023/01/30 04:46:06;;;;;;;12.93;8.47;;;0.90;99.90;;;0.71;78.79;99335.50;5084161;28;20212;-67
2023/01/30 04:48:34;;;;;;;12.27;8.07;;;0.90;99.90;;;0.73;78.40;99328.75;5077095;28;20266;-66
2023/01/30 04:51:03;;;;;;;10.33;7.87;;;0.90;99.90;;;0.74;78.14;99327.94;5062248;28;20224;-67
2023/01/30 04:53:31;;;;;;;10.70;7.50;;;0.90;99.90;;;0.73;78.69;99323.69;5061846;28;20619;-66
2023/01/30 04:56:00;;;;;;;11.93;7.40;;;0.90;99.90;;;0.73;77.72;99324.53;5077873;28;20204;-65
2023/01/30 04:58:28;;;;;;;11.50;7.67;;;0.90;99.90;;;0.73;77.95;99321.13;5079463;28;20205;-69
2023/01/30 05:01:14;;;;;;;10.63;7.10;;;0.90;99.90;;;0.72;78.00;99321.97;5057352;28;20263;-67
2023/01/30 05:03:43;;;;;;;11.43;7.17;;;0.90;99.90;;;0.77;78.09;99330.50;5060707;28;20193;-68
2023/01/30 05:06:11;;;;;;;12.33;7.83;;;1.00;99.90;;;0.77;78.19;99325.44;5078554;28;20205;-66
2023/01/30 05:08:39;;;;;;;11.57;7.50;;;0.90;99.90;;;0.77;77.23;99310.22;5067285;28;20225;-70
2023/01/30 05:11:08;;;;;;;13.20;7.70;;;1.00;99.90;;;0.77;77.44;99300.06;5068882;28;20247;-65
2023/01/30 05:13:36;;;;;;;11.97;7.80;;;1.00;99.90;;;0.80;77.05;99294.22;5068235;28;20237;-67
2023/01/30 05:16:07;;;;;;;10.07;6.80;;;1.00;99.90;;;0.83;77.49;99287.50;5069953;28;20205;-67
2023/01/30 05:18:35;;;;;;;10.50;6.43;;;1.00;99.90;;;0.83;77.12;99282.44;5063372;28;20241;-65
2023/01/30 05:21:06;;;;;;;10.73;7.47;;;1.00;99.90;;;0.86;76.36;99274.88;5060271;28;20637;-67
2023/01/30 05:23:35;;;;;;;11.10;6.90;;;1.00;99.90;;;0.86;76.70;99249.50;5058698;28;20208;-67
2023/01/30 05:26:04;;;;;;;9.00;6.73;;;1.00;99.90;;;0.88;76.35;99262.19;5066654;28;20254;-67
2023/01/30 05:28:33;;;;;;;8.97;6.33;;;1.00;99.90;;;0.86;76.43;99246.13;5055194;28;20241;-66
2023/01/30 05:31:02;;;;;;;9.90;6.63;;;1.00;99.90;;;0.84;76.08;99245.25;5071214;28;20236;-67
2023/01/30 05:33:32;;;;;;;11.13;6.30;;;1.00;99.90;;;0.84;76.05;99252.84;5073111;28;20208;-65
2023/01/30 05:36:00;;;;;;;11.50;6.27;;;1.00;99.90;;;0.82;76.38;99247.75;5067617;28;20209;-66
2023/01/30 05:38:29;;;;;;;9.33;6.37;;;1.00;99.90;;;0.81;76.58;99243.53;5070275;28;20732;-80
2023/01/30 05:41:01;;;;;;;8.23;5.87;;;1.00;99.90;;;0.82;76.81;99236.78;5072752;28;20210;-77
2023/01/30 05:43:30;;;;;;;9.47;5.90;;;1.00;99.90;;;0.83;76.70;99238.47;5077359;28;20205;-82
2023/01/30 05:46:01;;;;;;;10.87;6.73;;;1.00;99.90;;;0.81;76.45;99228.31;5075865;28;20204;-79
2023/01/30 05:48:32;;;;;;;8.00;6.17;;;1.00;99.90;;;0.86;76.95;99225.84;5071412;28;20210;-80
2023/01/30 05:51:01;;;;;;;8.67;6.27;;;1.00;99.90;;;0.85;75.92;99222.47;5073928;28;20206;-81
2023/01/30 05:53:33;;;;;;;8.80;6.13;;;1.00;99.90;;;0.84;76.05;99217.34;5063149;28;20209;-78
2023/01/30 05:56:05;;;;;;;10.33;6.47;;;1.00;99.90;;;0.81;76.10;99215.63;5083364;28;20211;-79
2023/01/30 05:58:33;;;;;;;8.90;6.33;;;1.00;99.90;;;0.83;76.23;99208.03;5082960;28;20218;-63
2023/01/30 06:01:03;;;;;;;10.77;7.27;;;1.00;99.90;;;0.83;76.11;99213.97;5060719;28;20262;-64
2023/01/30 06:03:32;;;;;;;8.27;6.13;;;1.00;99.90;;;0.80;75.80;99201.25;5072979;28;20262;-64
2023/01/30 06:06:02;;;;;;;11.33;6.57;;;1.00;99.90;;;0.77;76.18;99196.13;5073881;28;20305;-64
2023/01/30 06:08:31;;;;;;;9.47;6.37;;;1.00;99.90;;;0.77;75.94;99196.13;5069805;28;20218;-64
2023/01/30 06:11:01;;;;;;;10.90;7.00;;;1.00;99.90;;;0.77;75.79;99190.19;5073492;28;20290;-63
2023/01/30 06:13:32;;;;;;;10.70;6.57;;;1.00;99.90;;;0.77;76.13;99163.16;5073272;28;20209;-64
2023/01/30 06:16:01;;;;;;;10.90;6.43;;;1.00;99.90;;;0.77;75.84;99170.75;5068895;28;20248;-69
2023/01/30 06:18:29;;;;;;;9.00;6.33;;;1.00;99.90;;;0.78;75.95;99164.03;5068057;28;20206;-65
2023/01/30 06:20:59;;;;;;;10.03;6.30;;;1.00;99.90;;;0.74;76.12;99158.06;5068816;28;20210;-65
2023/01/30 06:23:28;;;;;;;10.07;7.33;;;1.00;99.90;;;0.72;75.38;99164.78;5061847;28;20666;-63
2023/01/30 06:25:56;;;;;;;10.47;6.90;;;0.90;99.90;;;0.72;75.65;99165.63;5069036;28;20577;-66
2023/01/30 06:28:27;;;;;;;11.73;7.00;;;0.90;99.90;;;0.71;75.84;99170.69;5073032;28;20287;-65
2023/01/30 06:30:55;;;;;;;8.93;6.17;;;0.90;99.90;;;0.73;75.96;99171.56;5070967;28;20229;-68
2023/01/30 06:33:23;;;;;;;11.43;6.80;;;0.90;99.90;;;0.71;76.01;99168.16;5076441;28;20201;-65
2023/01/30 06:35:54;;;;;;;10.37;6.53;;;0.90;99.90;;;0.69;75.55;99157.97;5068421;28;20302;-64
2023/01/30 06:38:24;;;;;;;9.93;7.17;;;0.90;99.90;;;0.70;75.07;99151.22;5065492;28;20243;-66
2023/01/30 06:40:53;;;;;;;10.60;6.97;;;0.90;99.90;;;0.70;74.97;99154.63;5073989;28;20243;-63
2023/01/30 06:43:21;;;;;;;12.83;7.07;;;0.90;99.90;;;0.69;75.01;99152.91;5072222;28;20205;-63
2023/01/30 06:45:50;;;;;;;9.70;6.93;;;1.00;99.90;;;0.68;74.68;99147.84;5074141;28;20216;-64
2023/01/30 06:48:18;;;;;;;16.97;7.80;;;0.90;99.90;;;0.68;74.88;99138.53;5072165;28;20221;-66
2023/01/30 06:50:47;;;;;;;12.13;7.77;;;0.90;99.90;;;0.68;74.73;99127.56;5074227;28;20205;-65
2023/01/30 06:53:16;;;;;;;11.37;7.67;;;0.90;99.90;;;0.67;74.70;99125.88;5086660;28;20603;-64
2023/01/30 06:55:46;;;;;;;10.30;7.27;;;0.90;99.90;;;0.69;74.31;99134.31;5062456;28;20201;-64
2023/01/30 06:58:15;;;;;;;11.83;7.87;;;0.90;99.90;;;0.70;74.05;99130.94;5071031;28;20258;-64
2023/01/30 07:00:43;;;;;;;12.33;7.30;;;0.90;99.90;;;0.71;73.80;99132.66;5065795;28;20202;-64
2023/01/30 07:03:13;;;;;;;12.13;6.93;;;1.00;99.90;;;0.73;73.52;99120.84;5056465;28;20209;-63
2023/01/30 07:05:43;;;;;;;11.93;7.80;;;0.90;99.90;;;0.74;73.74;99122.56;5061732;28;20221;-64
2023/01/30 07:08:13;;;;;;;12.37;7.57;;;1.00;99.90;;;0.78;72.94;99124.31;5053500;28;20229;-64
2023/01/30 07:10:45;;;;;;;9.63;6.87;;;1.00;99.90;;;0.77;72.68;99111.59;5069277;28;20224;-65
2023/01/30 07:13:14;;;;;;;11.50;7.67;;;1.00;99.90;;;0.77;72.83;99124.28;5067092;28;20318;-69
2023/01/30 07:15:42;;;;;;;13.10;7.93;;;1.00;99.90;;;0.76;72.30;99105.69;5063697;28;20205;-67
2023/01/30 07:18:11;;;;;;;12.37;8.17;;;1.00;99.90;;;0.76;72.81;99100.63;5075271;28;20330;-65
2023/01/30 07:20:41;;;;;;;11.70;7.87;;;1.00;99.90;;;0.75;72.57;99083.69;5074255;28;20276;-65
2023/01/30 07:23:09;;;;;;;10.90;7.60;;;1.00;99.90;;;0.77;72.21;99092.16;5066784;28;20213;-63
2023/01/30 07:25:37;;;;;;;10.77;7.17;;;1.10;99.90;;;0.78;72.86;99091.34;5065621;28;20571;-67
2023/01/30 07:28:07;;;;;;;10.03;7.27;;;1.00;99.90;;;0.74;72.51;99099.75;5067565;28;20705;-65
2023/01/30 07:30:38;;;;;;;13.03;8.90;;;1.00;99.90;;;0.72;72.82;99078.59;5073975;28;20255;-64
2023/01/30 07:33:07;;;;;;;14.47;8.27;;;1.00;99.90;;;0.70;73.08;99076.06;5062462;28;20200;-65
2023/01/30 07:35:37;;;;;;;13.50;8.07;;;1.00;99.90;;;0.71;73.28;99087.88;5072588;28;20214;-65
2023/01/30 07:38:06;;;;;;;14.43;8.80;;;1.00;99.90;;;0.72;73.33;99081.13;5066934;28;20205;-65
2023/01/30 07:40:35;;;;;;;11.97;7.83;;;1.00;99.90;;;0.67;73.83;99077.69;5075165;28;20636;-65
2023/01/30 07:43:06;;;;;;;10.83;7.73;;;0.90;99.90;;;0.64;74.39;99075.13;5067633;28;20193;-66
2023/01/30 07:45:39;;;;;;;12.87;8.47;;;0.90;99.90;;;0.60;74.23;99063.25;5074987;28;20196;-65
2023/01/30 07:48:09;;;;;;;12.13;8.23;;;0.90;99.90;;;0.55;74.09;99063.16;5068092;28;20645;-66
2023/01/30 07:50:38;;;;;;;13.20;9.23;;;0.80;99.90;;;0.52;74.64;99044.56;5064234;28;20221;-65
2023/01/30 07:53:09;;;;;;;13.77;9.13;;;0.80;99.90;;;0.51;75.49;99058.03;5072124;28;20263;-65
2023/01/30 07:55:38;;;;;;;13.80;8.53;;;0.80;99.90;;;0.50;75.45;99057.19;5075806;28;20205;-64
2023/01/30 07:58:06;;;;;;;13.30;9.07;;;0.80;99.90;;;0.50;75.41;99053.81;5077641;28;20641;-64
2023/01/30 08:00:36;;;;;;;14.23;9.67;;;0.80;99.90;;;0.46;75.91;99046.16;5072443;28;20262;-64
2023/01/30 08:03:04;;;;;;;14.17;9.40;;;0.80;99.90;;;0.42;76.32;99044.44;5070714;28;20229;-63
2023/01/30 08:05:33;;;;;;;15.00;8.93;;;0.70;99.90;;;0.39;76.69;99044.38;5069051;28;20690;-63
2023/01/30 08:08:02;;;;;;;13.93;9.03;;;0.70;99.90;;;0.39;76.78;99033.41;5072419;28;20326;-66
2023/01/30 08:10:30;;;;;;;13.20;9.07;;;0.70;99.90;;;0.35;77.40;99040.09;5070999;28;20311;-66
2023/01/30 08:12:59;;;;;;;17.23;10.10;;;0.70;99.90;;;0.31;77.61;99035.84;5071416;28;20212;-67
2023/01/30 08:15:30;;;;;;;14.97;10.20;;;0.60;99.90;;;0.30;78.21;99028.22;5059875;28;20209;-68
2023/01/30 08:18:00;;;;;;;14.93;9.93;;;0.60;99.90;;;0.31;78.19;99019.78;5077694;28;20293;-67
2023/01/30 08:20:29;;;;;;;16.97;10.80;;;0.60;99.90;;;0.31;78.82;99025.69;5068743;28;20224;-66
2023/01/30 08:23:00;;;;;;;15.00;10.17;;;0.60;99.90;;;0.32;78.39;99011.34;5072526;28;20202;-66
2023/01/30 08:25:29;;;;;;;14.70;9.53;;;0.60;99.90;;;0.31;78.38;99014.72;5070429;28;20236;-67
2023/01/30 08:27:59;;;;;;;15.23;9.77;;;0.60;99.90;;;0.31;78.78;99007.13;5066187;28;20255;-64
2023/01/30 08:30:29;;;;;;;16.80;10.70;;;0.60;99.90;;;0.30;79.16;99007.97;5073643;28;20212;-66
2023/01/30 08:32:59;;;;;;;14.97;9.93;;;0.60;99.90;;;0.33;78.77;99007.97;5071484;28;20225;-67
2023/01/30 08:35:28;;;;;;;17.93;11.40;;;0.60;99.90;;;0.31;78.82;99010.50;5071389;28;20209;-67
2023/01/30 08:37:56;;;;;;;18.50;10.80;;;0.60;99.90;;;0.28;78.97;99009.63;5077206;28;20209;-68
2023/01/30 08:40:25;;;;;;;17.90;11.37;;;0.50;99.90;;;0.27;79.41;99002.84;5081083;28;20559;-64
2023/01/30 08:42:53;;;;;;;15.60;10.57;;;0.50;99.90;;;0.29;79.45;99002.00;5075887;28;20645;-70
2023/01/30 08:45:22;;;;;;;20.33;11.97;;;0.50;99.90;;;0.29;79.66;99007.09;5077678;28;20208;-66
2023/01/30 08:47:50;;;;;;;19.73;10.67;;;0.50;99.90;;;0.29;79.47;98993.56;5084720;28;20205;-70
2023/01/30 08:50:20;;;;;;;18.37;10.13;;;0.50;99.90;;;0.28;79.28;99002.84;5081603;28;20224;-69
2023/01/30 08:52:48;;;;;;;15.60;10.10;;;0.50;99.90;;;0.26;79.18;98996.94;5082533;28;20196;-62
2023/01/30 08:55:17;;;;;;;17.53;11.67;;;0.50;99.90;;;0.21;79.24;98984.19;5062142;28;20209;-61
2023/01/30 08:57:46;;;;;;;19.23;11.37;;;0.50;99.90;;;0.20;79.49;98984.19;5087525;28;20238;-63
2023/01/30 09:00:17;;;;;;;17.10;12.00;;;0.50;99.90;;;0.19;79.45;98974.88;5065893;28;20224;-64
2023/01/30 09:02:46;;;;;;;18.43;10.87;;;0.50;99.90;;;0.18;79.82;98963.88;5066844;28;20665;-64
2023/01/30 09:05:15;;;;;;;21.33;12.53;;;0.50;99.90;;;0.21;79.33;98971.53;5056854;28;20201;-63
2023/01/30 09:07:45;;;;;;;18.57;11.73;;;0.50;99.90;;;0.22;79.83;98972.38;5067824;28;20638;-64
2023/01/30 09:10:19;;;;;;;18.77;12.27;;;0.50;99.90;;;0.22;79.81;98965.66;5066734;28;20242;-67
2023/01/30 09:12:48;;;;;;;20.80;11.93;;;0.40;99.90;;;0.24;79.86;98961.44;5065353;28;20617;-64
2023/01/30 09:15:17;;;;;;;20.23;12.50;;;0.50;99.90;;;0.25;79.38;98944.56;5066910;28;20214;-63
2023/01/30 09:17:45;;;;;;;19.43;11.93;;;0.50;99.90;;;0.27;79.76;98942.91;5073489;28;20206;-67
2023/01/30 09:20:13;;;;;;;17.20;11.90;;;0.50;99.90;;;0.22;80.31;98939.44;5074130;28;20201;-66
2023/01/30 09:22:43;;;;;;;19.85;14.93;;;0.50;99.90;;;0.21;80.04;98933.53;5074500;28;20474;-66
2023/01/30 09:25:12;;;;;;;20.30;14.07;;;0.40;99.90;;;0.17;80.28;98928.41;5081277;28;20259;-63
2023/01/30 09:27:43;;;;;;;23.17;14.37;;;0.50;99.90;;;0.17;80.54;98928.41;5075599;28;20225;-64
2023/01/30 09:30:12;;;;;;;19.47;11.80;;;0.50;99.90;;;0.19;80.61;98921.69;5077108;28;20236;-67
2023/01/30 09:32:41;;;;;;;19.60;12.03;;;0.50;99.90;;;0.21;80.25;98917.50;5072492;28;20205;-63
2023/01/30 09:35:09;;;;;;;18.27;11.13;;;0.50;99.90;;;0.24;80.71;98935.25;5059856;28;20317;-64
2023/01/30 09:37:38;;;;;;;18.43;12.13;;;0.50;99.90;;;0.23;80.27;98923.44;5076443;28;20224;-67
2023/01/30 09:40:16;;;;;;;20.03;12.40;;;0.50;99.90;;;0.19;80.11;98909.88;5069759;28;20201;-67
2023/01/30 09:43:25;;;;;;;21.03;12.67;;;0.50;99.90;;;0.20;80.66;98910.72;5070818;28;20664;-68
2023/01/30 09:46:17;;;;;;;18.53;11.07;;;0.50;99.90;;;0.20;80.53;98906.50;5071790;28;20665;-65
2023/01/30 09:49:02;;;;;;;17.30;11.60;;;0.50;99.90;;;0.24;80.20;98903.19;5078589;28;20294;-70
2023/01/30 09:51:46;;;;;;;15.50;10.67;;;0.50;99.90;;;0.27;80.26;98886.31;5072079;28;20241;-66
2023/01/30 09:54:23;;;;;;;16.87;11.13;;;0.60;99.90;;;0.28;80.33;98878.72;5074119;28;20338;-67
2023/01/30 09:57:11;;;;;;;17.83;11.90;;;0.60;99.90;;;0.26;80.42;98877.88;5073387;28;20207;-65
2023/01/30 10:00:07;;;;;;;14.90;10.57;;;0.60;99.90;;;0.29;80.95;98884.63;5076134;28;20208;-66
2023/01/30 10:02:47;;;;;;;16.70;11.40;;;0.60;99.90;;;0.29;80.66;98875.34;5072814;28;20197;-67
2023/01/30 10:05:16;;;;;;;19.13;11.30;;;0.60;99.90;;;0.34;80.95;98868.66;5068251;28;20201;-66
2023/01/30 10:08:03;;;;;;;16.63;11.00;;;0.60;99.90;;;0.34;80.74;98868.66;5072143;28;20760;-69
2023/01/30 10:10:47;;;;;;;21.73;12.43;;;0.60;99.90;;;0.39;80.98;98869.56;5069694;28;20212;-66
2023/01/30 10:14:00;;;;;;;18.33;11.23;;;0.70;99.90;;;0.42;81.20;98856.91;5069083;28;20643;-67
2023/01/30 10:16:36;;;;;;;17.07;10.63;;;0.70;99.90;;;0.47;81.01;98857.81;5070754;28;20198;-69
2023/01/30 10:19:44;;;;;;;17.87;10.97;;;0.70;99.90;;;0.50;80.86;98853.59;5068625;28;20201;-66
2023/01/30 10:22:32;;;;;;;18.10;11.57;;;0.80;99.90;;;0.53;81.06;98840.97;5073420;28;20229;-73
2023/01/30 10:25:19;;;;;;;18.53;12.33;;;0.80;99.90;;;0.55;80.81;98831.69;5072040;28;20247;-61
2023/01/30 10:27:56;;;;;;;15.27;10.30;;;0.80;99.90;;;0.53;81.15;98829.16;5070083;28;20193;-65
2023/01/30 10:30:26;;;;;;;14.57;9.83;;;0.80;99.90;;;0.52;80.73;98826.63;5078298;28;20292;-64
2023/01/30 10:33:02;;;;;;;17.70;11.83;;;0.80;99.90;;;0.46;81.21;98813.03;5071039;28;20229;-63
2023/01/30 10:35:35;;;;;;;16.10;11.00;;;0.80;99.90;;;0.45;81.66;98810.50;5074712;28;20323;-62
2023/01/30 10:38:15;;;;;;;18.30;11.50;;;0.80;99.90;;;0.44;81.75;98807.13;5072696;28;20201;-69
2023/01/30 10:40:52;;;;;;;14.90;10.07;;;0.80;99.90;;;0.47;82.13;98817.25;5078862;28;20243;-67
2023/01/30 10:43:28;;;;;;;16.77;11.53;;;0.80;99.90;;;0.52;82.12;98809.72;5064635;28;20270;-66
2023/01/30 10:46:10;;;;;;;16.87;10.80;;;0.80;99.90;;;0.57;81.82;98802.16;5070552;28;20255;-68
2023/01/30 10:48:55;;;;;;;16.90;11.33;;;0.80;99.90;;;0.62;82.30;98803.03;5083480;28;20201;-69
2023/01/30 10:51:38;;;;;;;16.43;10.60;;;0.90;99.90;;;0.65;81.85;98791.22;5071266;28;20224;-66
2023/01/30 10:54:13;;;;;;;14.87;10.43;;;0.90;99.90;;;0.65;82.27;98780.25;5069140;28;20259;-65
2023/01/30 10:56:51;;;;;;;15.73;10.60;;;0.90;99.90;;;0.66;82.23;98798.00;5079607;28;20223;-66